Elliot Chaparral Reserve, California Weather observations

Data are for 10 minute period ending at time listed.
 Day   Time   Solar   Ave.   Ave.  Ave.  Vector  Max.   Baro.   Total    
  of    of     Rad.   Air    Rel.  Wind   Wind   Wind  Press.  Precip.   
Year   Day            Temp.  Hum.  Speed  Dir.   Gust                    
2014   (PST)  Kw/m2    F      %     mph   deg.    mph    mb.     in.     
-------------------------------------------------------------------------
 293    8:00   0.08   64.0    80    5.4   108     7.0   985.4    0.00 
 293    8:10   0.11   64.5    80    4.8    99     6.1   985.4    0.00 
 293    8:20   0.13   65.5    78    4.4    86     6.1   985.4    0.00 
 293    8:30   0.15   66.0    77    3.0    98     4.5   985.4    0.00 
 293    8:40   0.18   67.0    75    2.7   101     4.8   985.5    0.00 
 293    8:50   0.19   67.8    73    2.6   136     4.5   985.5    0.00 
 293    9:00   0.21   68.5    73    2.5   128     7.0   985.5    0.00 
 293    9:10   0.21   69.0    72    2.1   307     6.0   985.5    0.00 
 293    9:20   0.26   68.9    72    3.0   305     6.5   985.4    0.00 
 293    9:30   0.27   69.5    71    1.9   359     5.1   985.4    0.00 
 293    9:40   0.24   70.1    70    4.7   315     7.6   985.4    0.00 
 293    9:50   0.25   69.5    70    4.6   310     7.6   985.5    0.00 
 293   10:00   0.25   69.8    69    6.5   307     9.4   985.4    0.00 
 293   10:10   0.25   69.5    69    6.7   301     9.9   985.4    0.00 
 293   10:20   0.29   69.8    70    7.2   298    10.1   985.4    0.00 
 293   10:30   0.27   70.1    68    7.4   306    11.0   985.3    0.00 
 293   10:40   0.30   70.2    68    5.5   285     7.9   985.2    0.00 
 293   10:50   0.41   70.8    67    4.6   277     8.3   985.0    0.00 
 293   11:00   0.34   70.7    69    7.5   302    11.2   984.9    0.00 
 293   11:10   0.32   70.6    69    6.5   342    10.9   984.8    0.00 
 293   11:20   0.50   71.4    67    7.6   322    12.0   984.6    0.00 
 293   11:30   0.76   73.0    63    6.0   353    10.1   984.4    0.00 
 293   11:40   0.33   72.1    64    5.8   342     9.6   984.1    0.00 
 293   11:50   0.77   72.6    64    5.0   295     9.6   984.0    0.00 
 293   12:00   0.76   74.1    60    6.1   312     9.3   983.8    0.00 
 293   12:10   0.75   74.9    59    7.3   312    12.3   983.5    0.00 
 293   12:20   0.67   73.8    61   10.0   296    15.7   983.3    0.00 
 293   12:30   0.70   74.4    60    8.9   291    14.8   983.3    0.00 
 293   12:40   0.75   74.8    60   11.7   293    15.7   983.2    0.00 
 293   12:50   0.71   74.0    63   14.2   287    18.8   983.1    0.00 
 293   13:00   0.55   72.7    65   12.9   292    17.5   983.0    0.00 
 293   13:10   0.49   72.1    67   11.9   306    17.8   982.9    0.00 
 293   13:20   0.63   72.6    65   12.6   295    17.6   983.0    0.00 
 293   13:30   0.61   72.6    65   12.3   288    17.2   982.9    0.00 
 293   13:40   0.54   72.7    65   12.2   286    17.7   982.9    0.00 
 293   13:50   0.56   72.3    66   11.4   295    16.2   982.8    0.00 
 293   14:00   0.54   72.7    64   10.2   288    16.2   982.7    0.00 
 293   14:10   0.51   72.8    64    9.3   298    13.9   982.7    0.00 
 293   14:20   0.48   73.2    63    9.0   297    13.2   982.7    0.00 
 293   14:30   0.46   73.4    63    8.8   283    13.2   982.6    0.00 
 293   14:40   0.43   73.2    63   11.0   274    16.2   982.5    0.00 
 293   14:50   0.40   73.4    62   10.5   280    14.2   982.5    0.00 
 293   15:00   0.37   72.8    64   12.6   284    17.6   982.5    0.00 
 293   15:10   0.34   72.2    65   11.7   278    16.0   982.5    0.00 
 293   15:20   0.30   71.6    66   11.3   280    14.4   982.4    0.00 
 293   15:30   0.27   70.9    67   11.5   283    14.4   982.4    0.00 
 293   15:40   0.23   70.3    68   11.4   294    14.6   982.5    0.00 
 293   15:50   0.20   70.0    69   11.6   291    15.8   982.6    0.00 
 293   16:00   0.18   70.2    68   11.8   288    16.4   982.7    0.00 
 293   16:10   0.12   69.0    71   11.8   298    17.2   982.8    0.00 
 293   16:20   0.10   68.1    73   12.1   289    16.6   982.8    0.00 
 293   16:30   0.08   67.8    74   11.2   289    13.8   982.8    0.00 
 293   16:40   0.05   67.1    75    9.8   293    12.9   982.9    0.00 
 293   16:50   0.03   66.6    76    9.6   301    14.0   983.0    0.00 
 293   17:00   0.02   66.1    78    6.7   312    10.3   983.1    0.00 
 293   17:10   0.00   65.6    79   10.1   312    13.6   983.2    0.00 
 293   17:20   0.00   65.0    81    8.8   316    12.8   983.2    0.00 
 293   17:30   0.00   64.7    81    8.0   312    10.4   983.3    0.00 
 293   17:40   0.00   64.4    82    8.0   304    10.6   983.3    0.00 
 293   17:50   0.00   64.3    82    6.6   308     9.2   983.4    0.00 
 293   18:00   0.00   64.2    83    5.9   314     8.1   983.6    0.00 
 293   18:10   0.00   64.0    83    7.0   306     9.2   983.7    0.00 
 293   18:20   0.00   64.0    84    4.8   308     7.8   983.7    0.00 
 293   18:30   0.00   63.8    84    4.7   313     7.5   983.7    0.00 
 293   18:40   0.00   63.7    84    4.3   332     6.0   983.7    0.00 
 293   18:50   0.00   63.4    85    2.9   336     5.1   983.7    0.00 
 293   19:00   0.00   63.4    86    4.4   327     5.9   983.8    0.00 
 293   19:10   0.00   63.4    86    3.2   313     4.2   983.8    0.00 
 293   19:20   0.00   63.2    86    5.1   310     6.6   983.9    0.00 
 293   19:30   0.00   63.2    87    5.4   313     7.1   984.0    0.00 
 293   19:40   0.00   63.4    87    4.9   319     7.2   984.1    0.00 
 293   19:50   0.00   63.5    87    5.3   320     8.3   984.2    0.00 
 293   20:00   0.00   63.7    87    6.3   315     7.5   984.2    0.00 
 293   20:10   0.00   63.9    86    5.9   324     8.3   984.3    0.00 
 293   20:20   0.00   64.0    86    4.7   334     6.9   984.4    0.00 
 293   20:30   0.00   64.1    86    5.0   328     6.1   984.5    0.00 
 293   20:40   0.00   64.3    86    4.7   333     6.4   984.7    0.00 
 293   20:50   0.00   64.4    85    2.8   344     5.8   984.6    0.00 
 293   21:00   0.00   64.5    85    3.4   351     5.1   984.6    0.00 
 293   21:10   0.00   64.5    85    2.8   335     4.9   984.7    0.00 
 293   21:20   0.00   64.6    84    2.9     9     4.5   984.6    0.00 
 293   21:30   0.00   64.6    84    2.5    10     3.6   984.7    0.00 
 293   21:40   0.00   64.6    84    3.4    18     5.3   984.7    0.00 
 293   21:50   0.00   64.8    84    2.0    54     2.9   984.6    0.00 
 293   22:00   0.00   64.7    84    3.4    50     4.9   984.5    0.00 
 293   22:10   0.00   64.5    84    3.5    43     5.9   984.5    0.00 
 293   22:20   0.00   64.6    84    1.0    71     2.3   984.4    0.00 
 293   22:30   0.00   64.7    84    1.2   357     2.8   984.4    0.00 
 293   22:40   0.00   64.7    84    1.9    12     2.7   984.4    0.00 
 293   22:50   0.00   64.5    84    2.9    15     3.9   984.4    0.00 
 293   23:00   0.00   64.4    84    2.0    23     4.8   984.4    0.00 
 293   23:10   0.00   64.3    84    4.7    77     7.2   984.2    0.00 
 293   23:20   0.00   64.2    84    3.7   111     5.8   984.1    0.00 
 293   23:30   0.00   64.1    84    3.9   132     6.4   984.1    0.00 
 293   23:40   0.00   63.9    85    1.6   265     3.4   984.2    0.00 
 293   23:50   0.00   63.8    85    2.1   169     5.4   984.2    0.00 
 294    0:00   0.00   63.9    85    2.2   138     4.8   984.1    0.00 
 294    0:10   0.00   63.7    85    2.8   119     5.5   984.0    0.00 
 294    0:20   0.00   63.6    86    2.5   131     5.4   984.0    0.00 
 294    0:30   0.00   63.7    85    2.0   142     3.2   984.0    0.00 
 294    0:40   0.00   63.6    85    3.1   131     5.2   983.9    0.00 
 294    0:50   0.00   63.3    86    1.3    70     3.6   984.0    0.00 
 294    1:00   0.00   63.3    86    1.2   183     2.0   984.0    0.00 
 294    1:10   0.00   63.5    86    0.2   101     0.9   984.0    0.00 
 294    1:20   0.00   63.6    86    1.5    68     2.2   983.9    0.00 
 294    1:30   0.00   63.6    86    0.1    89     1.2   984.0    0.00 
 294    1:40   0.00   63.7    86    1.4   126     2.6   984.0    0.00 
 294    1:50   0.00   63.7    86    0.6   126     1.8   984.0    0.00 
 294    2:00   0.00   63.8    86    0.4   205     1.5   984.0    0.00 
 294    2:10   0.00   63.9    85    1.1   192     1.7   983.9    0.00 
 294    2:20   0.00   64.0    85    0.8   325     2.2   984.1    0.00 
 294    2:30   0.00   64.1    85    0.0   324     0.5   984.0    0.00 
 294    2:40   0.00   64.1    84    1.6   304     3.8   984.0    0.00 
 294    2:50   0.00   64.0    84    3.0   318     4.5   983.9    0.00 
 294    3:00   0.00   64.1    84    1.3   346     2.9   983.8    0.00 
 294    3:10   0.00   64.1    84    3.7   100     6.7   983.7    0.00 
 294    3:20   0.00   63.9    84    5.6   104     7.0   983.6    0.00 
 294    3:30   0.00   63.9    84    6.3   108     7.8   983.7    0.00 
 294    3:40   0.00   63.9    84    6.1   107     8.7   983.7    0.00 
 294    3:50   0.00   63.8    85    5.9   101     7.7   983.7    0.00 
 294    4:00   0.00   63.8    85    5.9   102     8.1   983.6    0.00 
 294    4:10   0.00   63.7    85    7.3    99     9.6   983.5    0.00 
 294    4:20   0.00   63.6    86    7.0    99    10.5   983.5    0.00 
 294    4:30   0.00   63.5    86    5.5    97     7.9   983.5    0.00 
 294    4:40   0.00   63.4    86    6.8   123     9.2   983.4    0.00 
 294    4:50   0.00   63.2    86    6.7   126    10.3   983.4    0.00 
 294    5:00   0.00   63.0    87    5.9   115     8.9   983.5    0.00 
 294    5:10   0.00   62.7    88    7.4   105    10.2   983.4    0.00 
 294    5:20   0.00   62.5    88    7.4   110    10.5   983.4    0.00 
 294    5:30   0.00   62.5    88    5.0   110     9.4   983.5    0.00 
 294    5:40   0.00   62.4    88    3.4    44     6.4   983.8    0.00 
 294    5:50   0.00   62.2    88    3.1   103     5.9   983.8    0.00 
 294    6:00   0.00   62.3    88    2.0   344     7.0   983.9    0.00 
 294    6:10   0.00   62.2    88    6.0   318     8.8   984.1    0.00 
 294    6:20   0.00   62.3    89    4.4   318     6.4   984.1    0.00 
 294    6:30   0.01   62.5    88    1.5   331     4.6   983.9    0.00 
 294    6:40   0.01   62.5    88    2.0    92     3.7   983.9    0.00 
 294    6:50   0.02   62.5    88    2.6     9     5.6   984.0    0.00 
 294    7:00   0.03   62.6    88    2.1     9     5.7   984.1    0.00 
 294    7:10   0.04   62.7    88    3.6    99     5.7   984.2    0.00 
 294    7:20   0.06   63.1    87    1.9    68     4.9   984.4    0.00 
 294    7:30   0.07   63.4    86    1.7    30     5.3   984.5    0.00 
 294    7:40   0.09   63.2    86    4.1    56     6.3   984.5    0.00 
 294    7:50   0.11   63.4    86    2.8    95     6.0   984.4    0.00 

Return to Elliot Chaparral Reserve graphs page.


Western Regional Climate Center,wrcc@dri.edu